createdAt,value
2018-11-28T00:01:55.646Z,4.98
2018-11-28T00:04:23.040Z,4.95
2018-11-28T00:06:51.012Z,4.96
2018-11-28T00:09:18.355Z,4.95
2018-11-28T00:11:45.743Z,5.00
2018-11-28T00:14:13.116Z,4.99
2018-11-28T00:16:40.566Z,4.80
2018-11-28T00:19:07.913Z,4.82
2018-11-28T00:21:35.293Z,4.75
2018-11-28T00:24:03.493Z,4.70
2018-11-28T00:26:30.841Z,4.64
2018-11-28T00:28:58.291Z,4.64
2018-11-28T00:31:25.742Z,4.65
2018-11-28T00:33:53.257Z,4.63
2018-11-28T00:36:20.659Z,4.64
2018-11-28T00:38:48.028Z,4.56
2018-11-28T00:41:15.411Z,4.59
2018-11-28T00:43:42.785Z,4.50
2018-11-28T00:46:13.890Z,4.44
2018-11-28T00:48:41.374Z,4.51
2018-11-28T00:51:08.837Z,4.49
2018-11-28T00:53:36.976Z,4.47
2018-11-28T00:56:04.351Z,4.47
2018-11-28T00:58:31.822Z,4.52
2018-11-28T01:00:59.265Z,4.59
2018-11-28T01:03:32.932Z,4.50
2018-11-28T01:06:00.363Z,4.62
2018-11-28T01:08:27.823Z,4.62
2018-11-28T01:10:55.161Z,4.55
2018-11-28T01:13:22.527Z,4.50
2018-11-28T01:15:49.956Z,4.43
2018-11-28T01:18:17.329Z,4.40
2018-11-28T01:20:44.739Z,4.30
2018-11-28T01:23:12.104Z,4.37
2018-11-28T01:25:39.459Z,4.39
2018-11-28T01:28:06.936Z,4.38
2018-11-28T01:30:34.347Z,4.37
2018-11-28T01:33:01.728Z,4.39
2018-11-28T01:35:29.191Z,4.32
2018-11-28T01:37:56.647Z,4.25
2018-11-28T01:40:24.445Z,4.25
2018-11-28T01:42:52.036Z,4.41
2018-11-28T01:45:20.799Z,4.33
2018-11-28T01:47:48.182Z,4.32
2018-11-28T01:50:17.637Z,4.41
2018-11-28T01:52:45.061Z,4.25
2018-11-28T01:55:14.225Z,4.23
2018-11-28T01:57:41.619Z,4.31
2018-11-28T02:00:15.208Z,4.34
2018-11-28T02:02:42.633Z,4.24
2018-11-28T02:05:11.004Z,4.22
2018-11-28T02:07:38.496Z,4.23
2018-11-28T02:10:10.021Z,4.16
2018-11-28T02:12:37.433Z,4.04
2018-11-28T02:15:05.983Z,4.25
2018-11-28T02:17:33.423Z,4.22
2018-11-28T02:20:00.963Z,4.29
2018-11-28T02:22:28.381Z,4.21
2018-11-28T02:24:55.770Z,4.19
2018-11-28T02:27:23.207Z,4.20
2018-11-28T02:29:50.587Z,4.14
2018-11-28T02:32:18.387Z,4.11
2018-11-28T02:34:45.877Z,4.15
2018-11-28T02:37:13.356Z,4.03
2018-11-28T02:39:40.738Z,3.98
2018-11-28T02:42:08.113Z,3.87
2018-11-28T02:44:35.562Z,3.92
2018-11-28T02:47:03.065Z,3.93
2018-11-28T02:49:30.513Z,4.03
2018-11-28T02:51:57.923Z,3.96
2018-11-28T02:54:25.270Z,3.99
2018-11-28T02:56:52.777Z,4.01
2018-11-28T02:59:20.116Z,3.91
2018-11-28T03:01:47.684Z,3.92
2018-11-28T03:04:15.030Z,3.94
2018-11-28T03:06:42.388Z,3.95
2018-11-28T03:09:09.736Z,4.09
2018-11-28T03:11:37.178Z,4.08
2018-11-28T03:14:04.918Z,4.07
2018-11-28T03:16:32.387Z,4.03
2018-11-28T03:18:59.757Z,3.98
2018-11-28T03:21:27.082Z,3.82
2018-11-28T03:23:54.445Z,3.85
2018-11-28T03:26:21.797Z,3.86
2018-11-28T03:28:49.456Z,3.81
2018-11-28T03:31:17.020Z,3.83
2018-11-28T03:33:44.399Z,3.86
2018-11-28T03:36:11.835Z,3.76
2018-11-28T03:38:39.192Z,3.75
2018-11-28T03:41:06.545Z,3.68
2018-11-28T03:43:34.592Z,3.67
2018-11-28T03:46:01.952Z,3.60
2018-11-28T03:48:29.340Z,3.67
2018-11-28T03:50:56.682Z,3.70
2018-11-28T03:53:24.040Z,3.79
2018-11-28T03:55:51.512Z,3.97
2018-11-28T03:58:18.845Z,3.85
2018-11-28T04:00:46.331Z,3.84
2018-11-28T04:03:13.772Z,3.70
2018-11-28T04:05:41.280Z,3.64
2018-11-28T04:08:08.622Z,3.77
2018-11-28T04:10:36.007Z,3.69
2018-11-28T04:13:03.516Z,3.73
2018-11-28T04:15:30.881Z,3.72
2018-11-28T04:17:58.304Z,3.81
2018-11-28T04:20:30.238Z,3.87
2018-11-28T04:22:57.736Z,3.48
2018-11-28T04:25:25.218Z,3.92
2018-11-28T04:27:52.632Z,4.11
2018-11-28T04:30:22.134Z,4.18
2018-11-28T04:32:50.175Z,4.18
2018-11-28T04:35:17.646Z,4.23
2018-11-28T04:37:45.609Z,4.20
2018-11-28T04:40:14.092Z,4.23
2018-11-28T04:42:42.025Z,4.02
2018-11-28T04:45:11.895Z,4.33
2018-11-28T04:47:39.913Z,4.27
2018-11-28T04:50:08.611Z,4.32
2018-11-28T04:52:35.971Z,4.27
2018-11-28T04:55:04.978Z,4.37
2018-11-28T04:57:32.467Z,4.46
2018-11-28T04:59:59.890Z,4.31
2018-11-28T05:02:27.377Z,4.34
2018-11-28T05:04:54.863Z,4.30
2018-11-28T05:07:25.517Z,4.31
2018-11-28T05:09:53.142Z,4.41
2018-11-28T05:12:21.122Z,4.43
2018-11-28T05:14:48.606Z,4.47
2018-11-28T05:17:16.019Z,4.45
2018-11-28T05:19:43.373Z,4.39
2018-11-28T05:22:10.860Z,4.26
2018-11-28T05:24:38.376Z,4.26
2018-11-28T05:27:05.708Z,4.33
2018-11-28T05:29:33.282Z,4.43
2018-11-28T05:32:00.644Z,4.25
2018-11-28T05:34:28.016Z,4.17
2018-11-28T05:36:55.376Z,3.99
2018-11-28T05:39:23.052Z,4.32
2018-11-28T05:41:50.390Z,4.29
2018-11-28T05:44:17.780Z,4.10
2018-11-28T05:46:45.154Z,4.06
2018-11-28T05:49:15.125Z,4.01
2018-11-28T05:51:40.029Z,3.68
2018-11-28T05:54:07.510Z,3.50
2018-11-28T05:56:34.960Z,3.73
2018-11-28T05:59:03.457Z,3.91
2018-11-28T06:01:29.811Z,3.66
2018-11-28T06:03:57.311Z,3.80
2018-11-28T06:06:24.673Z,4.06
2018-11-28T06:08:52.684Z,4.20
2018-11-28T06:11:20.177Z,3.98
2018-11-28T06:13:47.531Z,4.07
2018-11-28T06:16:15.076Z,3.99
2018-11-28T06:18:42.481Z,3.90
2018-11-28T06:21:09.845Z,4.31
2018-11-28T06:23:37.192Z,4.49
2018-11-28T06:26:05.017Z,4.58
2018-11-28T06:28:32.445Z,4.47
2018-11-28T06:30:59.846Z,4.55
2018-11-28T06:33:27.221Z,4.42
2018-11-28T06:35:54.712Z,4.47
2018-11-28T06:38:22.047Z,4.31
2018-11-28T06:40:49.543Z,4.43
2018-11-28T06:43:17.007Z,4.41
2018-11-28T06:45:44.365Z,4.19
2018-11-28T06:48:11.732Z,4.41
2018-11-28T06:50:39.213Z,4.42
2018-11-28T06:53:06.748Z,4.47
2018-11-28T06:55:34.141Z,4.38
2018-11-28T06:58:01.513Z,4.37
2018-11-28T07:00:29.424Z,4.49
2018-11-28T07:02:56.792Z,4.52
2018-11-28T07:05:24.896Z,4.55
2018-11-28T07:07:52.712Z,4.46
2018-11-28T07:10:21.173Z,4.24
2018-11-28T07:12:48.572Z,4.41
2018-11-28T07:15:20.088Z,4.47
2018-11-28T07:17:47.466Z,4.48
2018-11-28T07:20:15.852Z,4.38
2018-11-28T07:22:43.324Z,4.28
2018-11-28T07:25:12.714Z,4.36
2018-11-28T07:27:45.116Z,4.49
2018-11-28T07:30:11.142Z,4.27
2018-11-28T07:32:38.640Z,4.39
2018-11-28T07:35:06.754Z,4.42
2018-11-28T07:37:34.132Z,4.31
2018-11-28T07:40:01.548Z,4.62
2018-11-28T07:42:28.892Z,4.58
2018-11-28T07:44:56.304Z,4.69
2018-11-28T07:47:23.664Z,4.60
2018-11-28T07:49:51.048Z,4.63
2018-11-28T07:52:18.479Z,4.47
2018-11-28T07:54:45.872Z,4.52
2018-11-28T07:57:13.496Z,4.66
2018-11-28T07:59:40.861Z,4.71
2018-11-28T08:02:08.291Z,4.79
2018-11-28T08:04:35.708Z,4.81
2018-11-28T08:07:03.163Z,4.75
2018-11-28T08:09:30.538Z,4.56
2018-11-28T08:11:57.920Z,4.80
2018-11-28T08:14:25.335Z,4.61
2018-11-28T08:16:52.757Z,4.58
2018-11-28T08:19:23.994Z,4.64
2018-11-28T08:21:47.480Z,4.72
2018-11-28T08:24:14.852Z,5.05
2018-11-28T08:26:42.398Z,4.88
2018-11-28T08:29:09.878Z,5.05
2018-11-28T08:31:37.219Z,5.25
2018-11-28T08:34:04.905Z,4.99
2018-11-28T08:36:32.222Z,5.32
2018-11-28T08:38:59.664Z,5.45
2018-11-28T08:41:27.600Z,5.39
2018-11-28T08:43:54.920Z,5.49
2018-11-28T08:46:22.346Z,5.09
2018-11-28T08:48:49.697Z,5.26
2018-11-28T08:51:17.201Z,5.36
2018-11-28T08:53:45.107Z,4.95
2018-11-28T08:56:12.553Z,5.13
2018-11-28T08:58:39.994Z,5.37
2018-11-28T09:01:07.430Z,5.59
2018-11-28T09:03:38.549Z,5.17
2018-11-28T09:06:06.272Z,4.99
2018-11-28T09:08:33.646Z,5.33
2018-11-28T09:11:01.100Z,5.55
2018-11-28T09:13:28.485Z,5.92
2018-11-28T09:15:55.897Z,5.53
2018-11-28T09:18:24.129Z,5.42
2018-11-28T09:20:51.520Z,5.37
2018-11-28T09:23:18.866Z,5.79
2018-11-28T09:25:46.292Z,5.77
2018-11-28T09:28:13.634Z,5.56
2018-11-28T09:30:41.001Z,5.86
2018-11-28T09:33:08.779Z,5.55
2018-11-28T09:35:35.777Z,5.77
2018-11-28T09:38:03.122Z,6.09
2018-11-28T09:40:30.592Z,5.94
2018-11-28T09:42:58.811Z,5.52
2018-11-28T09:45:26.633Z,5.77
2018-11-28T09:47:54.032Z,6.12
2018-11-28T09:50:22.904Z,6.34
2018-11-28T09:52:50.471Z,6.25
2018-11-28T09:55:19.675Z,6.50
2018-11-28T09:57:47.346Z,6.50
2018-11-28T10:00:18.227Z,6.53
2018-11-28T10:02:45.611Z,6.62
2018-11-28T10:05:15.333Z,6.83
2018-11-28T10:07:42.885Z,6.86
2018-11-28T10:10:11.625Z,6.80
2018-11-28T10:12:38.997Z,6.85
2018-11-28T10:15:12.872Z,7.05
2018-11-28T10:17:40.387Z,7.20
2018-11-28T10:20:09.060Z,6.95
2018-11-28T10:22:36.423Z,6.93
2018-11-28T10:25:04.138Z,6.81
2018-11-28T10:27:31.491Z,6.77
2018-11-28T10:29:59.500Z,6.73
2018-11-28T10:32:26.846Z,6.90
2018-11-28T10:34:54.193Z,6.78
2018-11-28T10:37:21.565Z,6.87
2018-11-28T10:39:49.718Z,6.84
2018-11-28T10:42:17.145Z,7.11
2018-11-28T10:44:44.558Z,7.26
2018-11-28T10:47:12.034Z,7.41
2018-11-28T10:49:39.439Z,7.28
2018-11-28T10:52:06.994Z,7.64
2018-11-28T10:54:34.463Z,7.50
2018-11-28T10:57:01.903Z,7.59
2018-11-28T10:59:29.257Z,7.43
2018-11-28T11:02:02.360Z,7.46
2018-11-28T11:05:34.370Z,7.18
2018-11-28T11:08:07.338Z,7.45
2018-11-28T11:10:40.372Z,7.91
2018-11-28T11:13:13.494Z,7.71
2018-11-28T11:15:41.302Z,7.78
2018-11-28T11:18:10.749Z,8.08
2018-11-28T11:20:37.290Z,7.99
2018-11-28T11:23:06.141Z,7.91
2018-11-28T11:25:33.661Z,8.06
2018-11-28T11:28:01.053Z,8.12
2018-11-28T11:30:28.392Z,8.27
2018-11-28T11:32:55.763Z,8.29
2018-11-28T11:35:23.595Z,8.38
2018-11-28T11:37:51.464Z,8.35
2018-11-28T11:40:23.890Z,8.55
2018-11-28T11:42:51.806Z,8.29
2018-11-28T11:45:19.144Z,8.21
2018-11-28T11:47:46.643Z,8.34
2018-11-28T11:50:16.112Z,8.30
2018-11-28T11:52:43.774Z,8.59
2018-11-28T11:55:13.287Z,8.52
2018-11-28T11:57:40.739Z,8.56
2018-11-28T12:00:14.749Z,8.64
2018-11-28T12:02:43.385Z,8.42
2018-11-28T12:05:11.754Z,8.69
2018-11-28T12:07:39.233Z,8.65
2018-11-28T12:10:10.010Z,8.79
2018-11-28T12:12:37.471Z,8.86
2018-11-28T12:15:07.465Z,8.40
2018-11-28T12:17:35.110Z,8.62
2018-11-28T12:20:02.550Z,8.75
2018-11-28T12:22:29.919Z,8.59
2018-11-28T12:24:57.249Z,8.75
2018-11-28T12:27:24.642Z,8.69
2018-11-28T12:29:52.065Z,8.63
2018-11-28T12:32:19.717Z,8.79
2018-11-28T12:34:50.413Z,8.88
2018-11-28T12:37:14.593Z,8.47
2018-11-28T12:39:42.036Z,8.74
2018-11-28T12:42:09.571Z,8.73
2018-11-28T12:44:37.008Z,8.90
2018-11-28T12:47:05.274Z,9.16
2018-11-28T12:49:32.655Z,9.36
2018-11-28T12:52:00.159Z,9.59
2018-11-28T12:54:27.610Z,9.51
2018-11-28T12:56:55.214Z,9.43
2018-11-28T12:59:22.676Z,9.41
2018-11-28T13:01:50.152Z,9.59
2018-11-28T13:04:17.543Z,9.63
2018-11-28T13:06:44.935Z,9.60
2018-11-28T13:09:12.336Z,9.40
2018-11-28T13:11:39.761Z,9.01
2018-11-28T13:14:07.105Z,9.25
2018-11-28T13:16:34.626Z,8.76
2018-11-28T13:19:02.008Z,9.37
2018-11-28T13:21:29.364Z,9.44
2018-11-28T13:23:56.677Z,9.17
2018-11-28T13:26:24.156Z,9.07
2018-11-28T13:28:51.530Z,9.15
2018-11-28T13:31:18.908Z,9.17
2018-11-28T13:33:46.254Z,9.19
2018-11-28T13:36:13.676Z,9.04
2018-11-28T13:38:41.053Z,8.73
2018-11-28T13:41:08.418Z,8.93
2018-11-28T13:43:36.305Z,9.16
2018-11-28T13:46:07.160Z,9.07
2018-11-28T13:48:31.822Z,9.52
2018-11-28T13:50:59.288Z,9.14
2018-11-28T13:53:26.706Z,9.33
2018-11-28T13:56:57.244Z,9.02
2018-11-28T13:58:23.785Z,8.72
2018-11-28T14:00:51.176Z,8.97
2018-11-28T14:03:18.637Z,8.84
2018-11-28T14:05:46.091Z,9.22
2018-11-28T14:08:13.469Z,8.53
2018-11-28T14:10:40.923Z,9.05
2018-11-28T14:13:08.346Z,8.91
2018-11-28T14:15:35.675Z,9.08
2018-11-28T14:18:12.657Z,8.90
2018-11-28T14:20:44.583Z,8.65
2018-11-28T14:23:12.108Z,8.77
2018-11-28T14:25:39.518Z,8.88
2018-11-28T14:28:07.515Z,8.96
2018-11-28T14:30:36.286Z,8.89
2018-11-28T14:33:03.735Z,8.79
2018-11-28T14:35:31.412Z,8.90
2018-11-28T14:37:58.790Z,8.34
2018-11-28T14:40:26.242Z,8.73
2018-11-28T14:42:54.934Z,8.74
2018-11-28T14:45:22.397Z,8.81
2018-11-28T14:47:50.683Z,8.52
2018-11-28T14:50:19.138Z,8.39
2018-11-28T14:52:47.422Z,8.27
2018-11-28T14:55:17.486Z,8.74
2018-11-28T14:57:44.892Z,8.63
2018-11-28T15:00:15.342Z,8.65
2018-11-28T15:02:42.867Z,8.55
2018-11-28T15:05:14.988Z,8.67
2018-11-28T15:07:42.368Z,8.51
2018-11-28T15:10:11.068Z,8.41
2018-11-28T15:12:38.443Z,8.44
2018-11-28T15:15:07.055Z,8.46
2018-11-28T15:17:34.416Z,8.41
2018-11-28T15:20:01.882Z,8.52
2018-11-28T15:22:29.349Z,8.44
2018-11-28T15:24:56.748Z,8.39
2018-11-28T15:27:24.195Z,8.66
2018-11-28T15:29:52.125Z,8.70
2018-11-28T15:32:19.629Z,8.60
2018-11-28T15:34:47.046Z,8.43
2018-11-28T15:37:14.541Z,8.36
2018-11-28T15:39:42.069Z,8.00
2018-11-28T15:42:09.579Z,8.25
2018-11-28T15:44:37.658Z,8.47
2018-11-28T15:47:05.355Z,8.52
2018-11-28T15:49:32.747Z,8.68
2018-11-28T15:52:00.161Z,8.56
2018-11-28T15:54:27.538Z,8.41
2018-11-28T15:56:54.978Z,8.29
2018-11-28T15:59:22.364Z,8.36
2018-11-28T16:01:49.738Z,8.38
2018-11-28T16:04:17.230Z,8.21
2018-11-28T16:06:44.696Z,8.06
2018-11-28T16:09:17.828Z,8.36
2018-11-28T16:11:45.250Z,8.47
2018-11-28T16:14:12.631Z,8.32
2018-11-28T16:16:40.060Z,8.14
2018-11-28T16:19:07.439Z,8.19
2018-11-28T16:21:34.816Z,8.25
2018-11-28T16:24:02.189Z,8.09
2018-11-28T16:26:30.348Z,7.99
2018-11-28T16:28:57.744Z,8.08
2018-11-28T16:31:25.348Z,8.66
2018-11-28T16:33:52.990Z,8.16
2018-11-28T16:36:20.333Z,8.00
2018-11-28T16:38:47.704Z,8.12
2018-11-28T16:41:15.132Z,8.36
2018-11-28T16:43:42.530Z,7.63
2018-11-28T16:46:09.890Z,8.18
2018-11-28T16:48:37.305Z,8.10
2018-11-28T16:51:05.067Z,8.29
2018-11-28T16:53:32.582Z,8.09
2018-11-28T16:56:00.027Z,8.46
2018-11-28T16:58:27.479Z,8.60
2018-11-28T17:00:54.970Z,8.32
2018-11-28T17:03:22.405Z,8.08
2018-11-28T17:05:50.393Z,8.49
2018-11-28T17:08:17.946Z,8.36
2018-11-28T17:10:45.289Z,8.16
2018-11-28T17:13:12.675Z,8.38
2018-11-28T17:15:40.153Z,8.23
2018-11-28T17:18:07.505Z,8.35
2018-11-28T17:20:36.211Z,8.06
2018-11-28T17:23:04.193Z,8.45
2018-11-28T17:25:32.244Z,8.34
2018-11-28T17:27:59.677Z,8.56
2018-11-28T17:30:28.399Z,8.44
2018-11-28T17:32:55.783Z,8.27
2018-11-28T17:35:23.273Z,8.45
2018-11-28T17:37:51.047Z,8.37
2018-11-28T17:40:21.633Z,8.72
2018-11-28T17:42:50.421Z,8.27
2018-11-28T17:45:18.487Z,8.64
2018-11-28T17:47:46.577Z,8.47
2018-11-28T17:50:16.178Z,8.12
2018-11-28T17:52:46.589Z,8.53
2018-11-28T17:55:16.017Z,8.09
2018-11-28T17:57:43.367Z,8.02
2018-11-28T18:00:12.427Z,8.14
2018-11-28T18:02:40.458Z,8.35
2018-11-28T18:05:09.265Z,8.34
2018-11-28T18:07:36.707Z,8.45
2018-11-28T18:10:07.268Z,8.44
2018-11-28T18:12:34.597Z,8.41
2018-11-28T18:15:02.098Z,8.29
2018-11-28T18:17:29.468Z,8.38
2018-11-28T18:19:57.875Z,8.73
2018-11-28T18:22:25.274Z,8.42
2018-11-28T18:24:52.833Z,8.67
2018-11-28T18:27:20.312Z,8.42
2018-11-28T18:29:47.771Z,8.58
2018-11-28T18:32:15.126Z,8.45
2018-11-28T18:34:42.558Z,8.68
2018-11-28T18:37:09.947Z,8.53
2018-11-28T18:39:37.342Z,8.43
2018-11-28T18:42:04.712Z,8.51
2018-11-28T18:44:32.142Z,8.54
2018-11-28T18:46:59.590Z,8.01
2018-11-28T18:49:27.150Z,8.63
2018-11-28T18:51:54.472Z,8.20
2018-11-28T18:54:21.910Z,8.31
2018-11-28T18:56:49.280Z,8.03
2018-11-28T18:59:17.298Z,8.41
2018-11-28T19:01:48.410Z,8.08
2018-11-28T19:04:12.247Z,8.15
2018-11-28T19:06:39.823Z,8.29
2018-11-28T19:09:10.053Z,8.27
2018-11-28T19:11:37.471Z,8.44
2018-11-28T19:14:05.788Z,8.58
2018-11-28T19:16:37.857Z,8.49
2018-11-28T19:19:00.688Z,8.14
2018-11-28T19:21:28.189Z,8.40
2018-11-28T19:23:55.540Z,8.44
2018-11-28T19:26:22.905Z,8.56
2018-11-28T19:28:50.534Z,8.45
2018-11-28T19:31:18.000Z,8.47
2018-11-28T19:33:46.339Z,8.25
2018-11-28T19:36:13.791Z,7.98
2018-11-28T19:38:41.137Z,8.21
2018-11-28T19:41:13.522Z,8.37
2018-11-28T19:43:41.116Z,8.33
2018-11-28T19:46:08.557Z,8.46
2018-11-28T19:48:36.001Z,8.17
2018-11-28T19:51:03.489Z,8.41
2018-11-28T19:53:30.900Z,8.34
2018-11-28T19:55:58.412Z,8.35
2018-11-28T19:58:25.745Z,8.35
2018-11-28T20:00:53.176Z,7.77
2018-11-28T20:03:20.673Z,8.06
2018-11-28T20:05:48.130Z,8.24
2018-11-28T20:08:15.617Z,8.31
2018-11-28T20:10:42.984Z,8.35
2018-11-28T20:13:10.577Z,8.30
2018-11-28T20:15:40.582Z,8.05
2018-11-28T20:18:08.112Z,8.22
2018-11-28T20:20:35.533Z,8.17
2018-11-28T20:23:03.094Z,8.37
2018-11-28T20:25:30.577Z,8.27
2018-11-28T20:28:00.312Z,8.13
2018-11-28T20:30:31.440Z,8.26
2018-11-28T20:32:58.946Z,8.34
2018-11-28T20:35:26.324Z,8.57
2018-11-28T20:37:53.750Z,8.58
2018-11-28T20:40:21.181Z,8.28
2018-11-28T20:42:50.460Z,8.42
2018-11-28T20:45:17.915Z,8.40
2018-11-28T20:47:45.457Z,8.74
2018-11-28T20:50:15.209Z,8.54
2018-11-28T20:52:44.674Z,8.42
2018-11-28T20:55:12.152Z,8.26
2018-11-28T20:57:39.612Z,8.13
2018-11-28T21:00:10.453Z,8.44
2018-11-28T21:02:37.921Z,8.54
2018-11-28T21:05:05.346Z,8.26
2018-11-28T21:07:32.665Z,8.43
2018-11-28T21:10:05.784Z,8.26
2018-11-28T21:12:33.293Z,8.36
2018-11-28T21:15:01.914Z,8.43
2018-11-28T21:17:29.374Z,8.30
2018-11-28T21:19:56.744Z,8.39
2018-11-28T21:22:24.194Z,8.30
2018-11-28T21:24:51.762Z,8.15
2018-11-28T21:27:19.223Z,8.37
2018-11-28T21:29:46.606Z,8.47
2018-11-28T21:32:13.987Z,8.32
2018-11-28T21:34:41.368Z,8.48
2018-11-28T21:37:08.767Z,8.25
2018-11-28T21:39:36.238Z,8.20
2018-11-28T21:42:04.232Z,8.47
2018-11-28T21:44:31.674Z,8.49
2018-11-28T21:46:59.300Z,8.57
2018-11-28T21:49:26.679Z,8.37
2018-11-28T21:51:54.069Z,8.34
2018-11-28T21:54:21.524Z,8.39
2018-11-28T21:56:49.048Z,8.33
2018-11-28T21:59:17.150Z,8.50
2018-11-28T22:01:44.678Z,8.35
2018-11-28T22:04:12.036Z,8.41
2018-11-28T22:06:39.386Z,8.52
2018-11-28T22:09:08.697Z,8.41
2018-11-28T22:11:36.565Z,8.62
2018-11-28T22:14:04.445Z,8.09
2018-11-28T22:16:31.789Z,8.23
2018-11-28T22:18:59.199Z,8.43
2018-11-28T22:21:26.651Z,8.02
2018-11-28T22:23:54.143Z,7.80
2018-11-28T22:26:21.485Z,8.29
2018-11-28T22:28:49.073Z,8.31
2018-11-28T22:31:16.474Z,8.30
2018-11-28T22:33:44.457Z,8.22
2018-11-28T22:36:11.818Z,8.36
2018-11-28T22:38:39.187Z,8.35
2018-11-28T22:41:06.591Z,8.39
2018-11-28T22:43:34.490Z,8.26
2018-11-28T22:46:01.817Z,8.34
2018-11-28T22:48:29.352Z,8.47
2018-11-28T22:50:56.666Z,8.64
2018-11-28T22:53:24.070Z,8.39
2018-11-28T22:55:51.946Z,8.48
2018-11-28T22:58:19.339Z,8.38
2018-11-28T23:00:52.508Z,8.37
2018-11-28T23:03:19.908Z,8.38
2018-11-28T23:05:50.422Z,8.47
2018-11-28T23:08:18.728Z,8.33
2018-11-28T23:10:46.584Z,8.54
2018-11-28T23:13:16.124Z,8.38
2018-11-28T23:15:43.552Z,8.38
2018-11-28T23:18:11.320Z,8.54
2018-11-28T23:20:38.853Z,8.68
2018-11-28T23:23:07.321Z,8.79
2018-11-28T23:25:34.841Z,9.03
2018-11-28T23:28:02.933Z,9.09
2018-11-28T23:30:30.363Z,8.73
2018-11-28T23:32:57.768Z,8.97
2018-11-28T23:35:25.340Z,8.96
2018-11-28T23:37:52.696Z,8.94
2018-11-28T23:40:25.239Z,8.67
2018-11-28T23:42:53.529Z,8.96
2018-11-28T23:45:21.433Z,8.76
2018-11-28T23:47:49.335Z,8.86
2018-11-28T23:50:18.533Z,8.97
2018-11-28T23:52:46.327Z,8.83
2018-11-28T23:55:14.745Z,8.59
2018-11-28T23:57:42.177Z,9.07
